createdAt,value
2022-10-01T00:00:47.867Z,11.35
2022-10-01T00:03:14.488Z,11.43
2022-10-01T00:05:40.888Z,11.32
2022-10-01T00:08:07.280Z,11.15
2022-10-01T00:10:33.929Z,11.40
2022-10-01T00:13:00.621Z,10.52
2022-10-01T00:15:27.125Z,10.60
2022-10-01T00:17:53.749Z,10.82
2022-10-01T00:20:20.580Z,12.50
2022-10-01T00:22:47.373Z,12.02
2022-10-01T00:25:13.734Z,12.10
2022-10-01T00:27:40.858Z,11.02
2022-10-01T00:30:07.920Z,11.40
2022-10-01T00:32:34.245Z,11.52
2022-10-01T00:35:00.936Z,11.40
2022-10-01T00:37:27.404Z,13.05
2022-10-01T00:39:53.991Z,12.00
2022-10-01T00:42:26.791Z,11.55
2022-10-01T00:44:56.374Z,11.68
2022-10-01T00:47:36.143Z,12.02
2022-10-01T00:50:09.792Z,12.30
2022-10-01T00:52:40.727Z,11.85
2022-10-01T00:55:12.259Z,12.52
2022-10-01T00:57:40.112Z,11.60
2022-10-01T01:00:10.062Z,12.02
2022-10-01T01:02:36.993Z,14.95
2022-10-01T01:05:04.792Z,12.35
2022-10-01T01:07:33.749Z,12.70
2022-10-01T01:10:01.831Z,12.27
2022-10-01T01:12:52.919Z,16.33
2022-10-01T01:15:24.956Z,12.43
2022-10-01T01:17:59.119Z,11.88
2022-10-01T01:21:00.003Z,11.93
2022-10-01T01:23:46.954Z,11.90
2022-10-01T01:26:48.049Z,12.05
2022-10-01T01:29:38.281Z,12.20
2022-10-01T01:32:14.991Z,12.18
2022-10-01T01:34:48.961Z,12.02
2022-10-01T01:37:18.458Z,14.55
2022-10-01T01:39:50.775Z,15.00
2022-10-01T01:42:31.144Z,11.48
2022-10-01T01:45:00.935Z,14.02
2022-10-01T01:47:30.433Z,11.30
2022-10-01T01:49:58.404Z,12.73
2022-10-01T01:52:25.006Z,12.45
2022-10-01T01:54:51.610Z,12.45
2022-10-01T01:57:19.849Z,12.70
2022-10-01T01:59:47.092Z,11.80
2022-10-01T02:02:17.451Z,12.63
2022-10-01T02:04:48.912Z,16.42
2022-10-01T02:07:16.134Z,12.65
2022-10-01T02:09:54.994Z,12.57
2022-10-01T02:13:03.373Z,13.32
2022-10-01T02:15:48.109Z,15.65
2022-10-01T02:18:37.395Z,13.05
2022-10-01T02:21:07.020Z,15.48
2022-10-01T02:23:42.918Z,12.00
2022-10-01T02:26:16.037Z,13.55
2022-10-01T02:28:44.508Z,13.80
2022-10-01T02:31:12.766Z,12.63
2022-10-01T02:33:41.863Z,14.10
2022-10-01T02:36:10.974Z,12.07
2022-10-01T02:38:41.815Z,12.43
2022-10-01T02:41:11.638Z,12.82
2022-10-01T02:43:50.183Z,12.48
2022-10-01T02:46:28.406Z,13.15
2022-10-01T02:48:56.708Z,13.95
2022-10-01T02:51:33.302Z,12.63
2022-10-01T02:54:09.268Z,13.10
2022-10-01T02:56:56.343Z,12.90
2022-10-01T02:59:22.831Z,12.20
2022-10-01T03:01:49.368Z,13.27
2022-10-01T03:04:15.828Z,12.15
2022-10-01T03:06:42.153Z,12.68
2022-10-01T03:09:08.742Z,16.48
2022-10-01T03:11:35.504Z,12.50
2022-10-01T03:14:02.998Z,11.85
2022-10-01T03:16:29.402Z,12.13
2022-10-01T03:18:56.005Z,11.95
2022-10-01T03:21:22.368Z,12.63
2022-10-01T03:23:49.026Z,12.23
2022-10-01T03:26:15.453Z,13.50
2022-10-01T03:28:41.825Z,14.13
2022-10-01T03:31:10.032Z,12.13
2022-10-01T03:33:36.769Z,15.20
2022-10-01T03:36:04.364Z,11.63
2022-10-01T03:38:31.246Z,11.95
2022-10-01T03:40:57.984Z,11.52
2022-10-01T03:43:24.496Z,14.20
2022-10-01T03:45:50.981Z,13.60
2022-10-01T03:48:18.230Z,14.23
2022-10-01T03:50:53.613Z,14.60
2022-10-01T03:53:20.179Z,15.75
2022-10-01T03:55:46.493Z,17.88
2022-10-01T03:58:12.847Z,18.70
2022-10-01T04:00:39.364Z,20.38
2022-10-01T04:03:06.776Z,21.20
2022-10-01T04:05:33.669Z,21.38
2022-10-01T04:08:00.625Z,21.85
2022-10-01T04:10:26.972Z,20.27
2022-10-01T04:12:55.509Z,21.00
2022-10-01T04:15:22.767Z,21.73
2022-10-01T04:17:49.425Z,20.52
2022-10-01T04:20:15.783Z,20.13
2022-10-01T04:22:42.928Z,20.88
2022-10-01T04:25:10.860Z,21.27
2022-10-01T04:27:41.837Z,20.80
2022-10-01T04:30:09.853Z,21.55
2022-10-01T04:32:37.334Z,20.50
2022-10-01T04:35:04.461Z,21.33
2022-10-01T04:37:31.245Z,23.20
2022-10-01T04:39:57.582Z,21.33
2022-10-01T04:42:23.917Z,20.70
2022-10-01T04:44:50.855Z,21.27
2022-10-01T04:47:17.369Z,22.17
2022-10-01T04:49:43.742Z,20.45
2022-10-01T04:52:11.316Z,20.30
2022-10-01T04:54:39.018Z,23.27
2022-10-01T04:57:05.420Z,24.27
2022-10-01T04:59:32.183Z,23.90
2022-10-01T05:01:58.673Z,24.90
2022-10-01T05:04:25.090Z,24.73
2022-10-01T05:06:51.639Z,24.65
2022-10-01T05:09:17.982Z,25.08
2022-10-01T05:11:44.387Z,25.80
2022-10-01T05:14:11.932Z,25.80
2022-10-01T05:16:38.403Z,25.65
2022-10-01T05:19:04.943Z,26.80
2022-10-01T05:21:32.103Z,26.52
2022-10-01T05:23:58.711Z,26.17
2022-10-01T05:26:25.245Z,25.92
2022-10-01T05:28:51.639Z,26.50
2022-10-01T05:31:18.899Z,25.13
2022-10-01T05:33:45.467Z,26.15
2022-10-01T05:36:11.961Z,25.45
2022-10-01T05:38:38.653Z,25.90
2022-10-01T05:41:05.212Z,25.85
2022-10-01T05:43:31.917Z,26.33
2022-10-01T05:46:02.325Z,26.70
2022-10-01T05:48:29.262Z,26.25
2022-10-01T05:50:55.602Z,26.58
2022-10-01T05:53:23.482Z,26.98
2022-10-01T05:55:49.849Z,26.88
2022-10-01T05:58:16.341Z,27.38
2022-10-01T06:00:43.523Z,27.17
2022-10-01T06:03:12.824Z,26.70
2022-10-01T06:05:39.826Z,27.25
2022-10-01T06:08:07.208Z,27.17
2022-10-01T06:10:33.938Z,26.27
2022-10-01T06:13:01.793Z,27.42
2022-10-01T06:15:29.394Z,27.83
2022-10-01T06:17:55.879Z,28.77
2022-10-01T06:20:22.257Z,27.73
2022-10-01T06:22:57.053Z,26.55
2022-10-01T06:25:24.495Z,27.85
2022-10-01T06:27:56.514Z,27.52
2022-10-01T06:30:23.665Z,26.90
2022-10-01T06:32:50.045Z,27.42
2022-10-01T06:35:16.414Z,27.02
2022-10-01T06:37:42.757Z,26.45
2022-10-01T06:40:09.751Z,27.13
2022-10-01T06:42:36.170Z,26.00
2022-10-01T06:45:02.797Z,25.38
2022-10-01T06:47:29.337Z,26.45
2022-10-01T06:49:55.657Z,26.98
2022-10-01T06:52:40.750Z,25.95
2022-10-01T06:55:07.657Z,25.52
2022-10-01T06:57:34.348Z,25.70
2022-10-01T07:00:00.859Z,25.95
2022-10-01T07:02:28.848Z,26.70
2022-10-01T07:04:59.008Z,26.45
2022-10-01T07:07:32.983Z,26.63
2022-10-01T07:09:59.522Z,26.77
2022-10-01T07:12:26.535Z,26.23
2022-10-01T07:14:53.843Z,26.33
2022-10-01T07:17:21.125Z,26.73
2022-10-01T07:19:47.616Z,24.98
2022-10-01T07:22:14.010Z,24.98
2022-10-01T07:24:40.432Z,25.45
2022-10-01T07:27:07.595Z,25.52
2022-10-01T07:29:34.317Z,24.33
2022-10-01T07:32:01.774Z,27.60
2022-10-01T07:34:31.120Z,27.13
2022-10-01T07:36:57.510Z,26.45
2022-10-01T07:39:24.185Z,26.50
2022-10-01T07:41:51.484Z,25.75
2022-10-01T07:44:18.949Z,27.20
2022-10-01T07:46:46.291Z,26.17
2022-10-01T07:49:12.960Z,26.80
2022-10-01T07:51:39.421Z,26.05
2022-10-01T07:54:05.890Z,27.02
2022-10-01T07:56:32.353Z,26.75
2022-10-01T07:58:59.042Z,26.98
2022-10-01T08:01:25.895Z,26.55
2022-10-01T08:03:52.815Z,25.70
2022-10-01T08:06:25.321Z,25.85
2022-10-01T08:08:52.741Z,25.95
2022-10-01T08:11:19.146Z,26.77
2022-10-01T08:13:48.098Z,25.67
2022-10-01T08:16:15.797Z,26.23
2022-10-01T08:18:42.218Z,26.23
2022-10-01T08:21:09.251Z,25.90
2022-10-01T08:23:36.286Z,26.58
2022-10-01T08:26:06.923Z,28.42
2022-10-01T08:28:34.786Z,27.10
2022-10-01T08:31:07.486Z,27.23
2022-10-01T08:33:34.815Z,28.55
2022-10-01T08:36:02.971Z,28.60
2022-10-01T08:38:29.491Z,28.15
2022-10-01T08:40:57.338Z,28.40
2022-10-01T08:43:30.817Z,29.70
2022-10-01T08:46:02.241Z,29.23
2022-10-01T08:48:56.809Z,30.58
2022-10-01T08:51:32.639Z,29.75
2022-10-01T08:54:09.047Z,31.25
2022-10-01T08:56:40.374Z,30.58
2022-10-01T08:59:26.637Z,30.90
2022-10-01T09:01:55.975Z,31.15
2022-10-01T09:04:23.624Z,31.52
2022-10-01T09:06:59.428Z,31.50
2022-10-01T09:09:45.283Z,31.58
2022-10-01T09:12:26.555Z,32.30
2022-10-01T09:15:10.475Z,32.67
2022-10-01T09:18:12.433Z,31.63
2022-10-01T09:20:47.712Z,31.02
2022-10-01T09:23:26.559Z,31.88
2022-10-01T09:25:53.242Z,32.20
2022-10-01T09:28:23.084Z,32.30
2022-10-01T09:31:00.149Z,32.42
2022-10-01T09:33:40.900Z,33.42
2022-10-01T09:36:23.476Z,35.13
2022-10-01T09:39:09.902Z,34.28
2022-10-01T09:41:36.693Z,34.15
2022-10-01T09:44:03.820Z,34.13
2022-10-01T09:46:30.376Z,33.67
2022-10-01T09:49:02.946Z,34.67
2022-10-01T09:51:39.436Z,37.00
2022-10-01T09:54:19.238Z,35.67
2022-10-01T09:56:51.150Z,36.28
2022-10-01T09:59:23.876Z,34.75
2022-10-01T10:01:53.874Z,34.70
2022-10-01T10:04:23.515Z,33.28
2022-10-01T10:06:53.210Z,34.17
2022-10-01T10:09:28.010Z,34.08
2022-10-01T10:11:56.621Z,35.25
2022-10-01T10:14:33.882Z,32.53
2022-10-01T10:17:17.971Z,32.22
2022-10-01T10:19:52.360Z,31.95
2022-10-01T10:22:24.809Z,31.90
2022-10-01T10:24:53.381Z,32.28
2022-10-01T10:27:30.089Z,31.10
2022-10-01T10:30:14.770Z,30.92
2022-10-01T10:32:43.325Z,28.80
2022-10-01T10:35:14.932Z,24.85
2022-10-01T10:37:50.765Z,23.48
2022-10-01T10:40:24.608Z,24.10
2022-10-01T10:42:56.149Z,20.88
2022-10-01T10:45:38.718Z,20.27
2022-10-01T10:48:12.194Z,21.05
2022-10-01T10:50:41.039Z,19.52
2022-10-01T10:53:22.636Z,20.67
2022-10-01T10:56:01.428Z,19.70
2022-10-01T10:58:30.034Z,19.00
2022-10-01T11:01:01.107Z,18.95
2022-10-01T11:03:30.918Z,18.73
2022-10-01T11:06:08.888Z,17.50
2022-10-01T11:08:35.774Z,16.63
2022-10-01T11:11:02.184Z,16.00
2022-10-01T11:13:58.306Z,15.20
2022-10-01T11:16:51.964Z,18.80
2022-10-01T11:19:40.144Z,16.42
2022-10-01T11:22:37.050Z,14.77
2022-10-01T11:25:47.839Z,11.80
2022-10-01T11:28:29.373Z,12.55
2022-10-01T11:31:10.503Z,11.38
2022-10-01T11:33:46.470Z,12.70
2022-10-01T11:36:34.187Z,16.90
2022-10-01T11:39:02.941Z,14.68
2022-10-01T11:41:35.282Z,20.02
2022-10-01T11:44:16.504Z,13.82
2022-10-01T11:47:00.768Z,15.38
2022-10-01T11:49:45.259Z,15.88
2022-10-01T11:52:20.465Z,15.82
2022-10-01T11:55:31.370Z,17.55
2022-10-01T11:58:31.523Z,17.63
2022-10-01T12:01:05.843Z,22.48
2022-10-01T12:03:52.882Z,18.98
2022-10-01T12:06:43.283Z,18.13
2022-10-01T12:09:15.938Z,15.77
2022-10-01T12:11:54.355Z,12.57
2022-10-01T12:14:27.096Z,17.08
2022-10-01T12:17:04.314Z,14.35
2022-10-01T12:19:37.179Z,12.55
2022-10-01T12:22:03.458Z,14.38
2022-10-01T12:24:36.339Z,13.95
2022-10-01T12:27:23.531Z,18.90
2022-10-01T12:30:08.116Z,15.38
2022-10-01T12:33:07.329Z,13.38
2022-10-01T12:35:39.832Z,11.43
2022-10-01T12:38:21.430Z,15.07
2022-10-01T12:41:42.237Z,14.55
2022-10-01T12:44:34.256Z,13.85
2022-10-01T12:47:23.463Z,14.77
2022-10-01T12:50:20.941Z,15.07
2022-10-01T12:53:15.339Z,13.15
2022-10-01T12:55:48.658Z,16.65
2022-10-01T12:58:15.327Z,14.43
2022-10-01T13:00:55.308Z,13.20
2022-10-01T13:03:52.723Z,16.02
2022-10-01T13:06:35.094Z,23.58
2022-10-01T13:09:17.288Z,14.05
2022-10-01T13:12:09.229Z,18.52
2022-10-01T13:14:36.635Z,28.58
2022-10-01T13:17:13.317Z,28.73
2022-10-01T13:19:57.864Z,27.33
2022-10-01T13:22:46.168Z,26.50
2022-10-01T13:25:30.595Z,28.50
2022-10-01T13:28:11.857Z,28.67
2022-10-01T13:31:12.851Z,29.10
2022-10-01T13:33:39.505Z,29.40
2022-10-01T13:36:08.195Z,29.30
2022-10-01T13:38:47.612Z,30.92
2022-10-01T13:41:21.447Z,31.00
2022-10-01T13:43:56.842Z,31.17
2022-10-01T13:46:28.424Z,30.58
2022-10-01T13:48:55.669Z,31.23
2022-10-01T13:51:22.395Z,31.60
2022-10-01T13:53:57.972Z,32.50
2022-10-01T13:56:32.611Z,31.85
2022-10-01T13:58:59.615Z,31.77
2022-10-01T14:01:31.304Z,29.92
2022-10-01T14:04:21.992Z,30.70
2022-10-01T14:07:03.114Z,30.73
2022-10-01T14:09:35.032Z,28.63
2022-10-01T14:12:35.419Z,28.52
2022-10-01T14:15:58.157Z,25.45
2022-10-01T14:18:29.117Z,23.00
2022-10-01T14:21:25.872Z,21.02
2022-10-01T14:24:14.208Z,20.52
2022-10-01T14:26:54.342Z,18.25
2022-10-01T14:29:35.860Z,16.55
2022-10-01T14:32:11.349Z,16.55
2022-10-01T14:34:58.029Z,16.30
2022-10-01T14:37:24.811Z,14.65
2022-10-01T14:40:26.138Z,15.93
2022-10-01T14:43:03.229Z,15.27
2022-10-01T14:45:30.279Z,13.38
2022-10-01T14:48:05.239Z,13.57
2022-10-01T14:50:34.953Z,13.68
2022-10-01T14:53:01.556Z,15.25
2022-10-01T14:55:29.396Z,13.00
2022-10-01T14:57:57.598Z,16.33
2022-10-01T15:00:27.879Z,14.43
2022-10-01T15:03:18.864Z,14.93
2022-10-01T15:05:49.036Z,17.25
2022-10-01T15:11:02.493Z,16.52
2022-10-01T15:16:27.812Z,15.82
2022-10-01T15:18:56.554Z,18.60
2022-10-01T15:21:38.004Z,17.77
2022-10-01T15:24:07.245Z,17.90
2022-10-01T15:26:34.409Z,19.85
2022-10-01T15:29:04.232Z,12.75
2022-10-01T15:31:32.277Z,17.95
2022-10-01T15:34:02.837Z,11.63
2022-10-01T15:36:29.385Z,15.73
2022-10-01T15:38:56.590Z,11.80
2022-10-01T15:41:32.521Z,17.55
2022-10-01T15:44:03.825Z,15.55
2022-10-01T15:46:34.977Z,12.00
2022-10-01T15:49:21.417Z,12.95
2022-10-01T15:52:14.388Z,16.52
2022-10-01T15:54:43.253Z,16.63
2022-10-01T15:57:28.148Z,11.38
2022-10-01T15:59:56.878Z,12.60
2022-10-01T16:02:27.832Z,16.88
2022-10-01T16:04:56.795Z,15.80
2022-10-01T16:07:29.644Z,14.30
2022-10-01T16:09:59.162Z,14.60
2022-10-01T16:12:29.327Z,16.08
2022-10-01T16:17:29.868Z,17.13
2022-10-01T16:19:59.289Z,15.43
2022-10-01T16:22:29.583Z,15.82
2022-10-01T16:27:47.396Z,11.50
2022-10-01T16:30:21.327Z,20.20
2022-10-01T16:32:47.938Z,15.77
2022-10-01T16:35:28.883Z,21.83
2022-10-01T16:37:58.016Z,15.75
2022-10-01T16:40:33.663Z,15.18
2022-10-01T16:43:01.065Z,13.73
2022-10-01T16:45:33.522Z,18.08
2022-10-01T16:48:00.738Z,18.52
2022-10-01T16:50:27.564Z,17.50
2022-10-01T16:52:55.688Z,19.75
2022-10-01T16:55:24.893Z,16.90
2022-10-01T16:57:54.581Z,14.52
2022-10-01T17:00:23.824Z,19.50
2022-10-01T17:02:50.384Z,13.20
2022-10-01T17:05:28.422Z,15.05
2022-10-01T17:08:03.623Z,22.67
2022-10-01T17:10:32.248Z,16.25
2022-10-01T17:12:59.644Z,19.60
2022-10-01T17:15:28.041Z,19.75
2022-10-01T17:17:55.786Z,17.48
2022-10-01T17:20:23.686Z,15.00
2022-10-01T17:22:51.756Z,16.73
2022-10-01T17:25:21.130Z,19.65
2022-10-01T17:27:48.391Z,14.40
2022-10-01T17:30:15.953Z,16.58
2022-10-01T17:32:43.408Z,15.38
2022-10-01T17:35:11.497Z,21.05
2022-10-01T17:37:37.991Z,26.95
2022-10-01T17:40:05.838Z,16.42
2022-10-01T17:42:34.426Z,18.70
2022-10-01T17:45:01.803Z,23.25
2022-10-01T17:47:28.733Z,22.65
2022-10-01T17:49:55.637Z,23.13
2022-10-01T17:52:22.388Z,35.38
2022-10-01T17:54:49.138Z,22.38
2022-10-01T17:57:15.895Z,24.42
2022-10-01T17:59:42.616Z,22.52
2022-10-01T18:02:36.648Z,26.55
2022-10-01T18:04:58.835Z,24.23
2022-10-01T18:07:26.188Z,22.10
2022-10-01T18:09:53.946Z,25.50
2022-10-01T18:12:20.874Z,27.85
2022-10-01T18:14:48.648Z,20.90
2022-10-01T18:17:15.307Z,24.48
2022-10-01T18:19:57.106Z,25.67
2022-10-01T18:22:23.879Z,27.13
2022-10-01T18:24:50.313Z,23.70
2022-10-01T18:27:16.861Z,22.98
2022-10-01T18:29:43.300Z,21.33
2022-10-01T18:32:19.263Z,22.77
2022-10-01T18:35:00.176Z,28.77
2022-10-01T18:37:40.397Z,24.90
2022-10-01T18:40:16.121Z,18.17
2022-10-01T18:42:45.342Z,19.45
2022-10-01T18:45:26.427Z,35.13
2022-10-01T18:48:08.947Z,27.30
2022-10-01T18:50:46.562Z,30.23
2022-10-01T18:53:34.644Z,25.33
2022-10-01T18:56:20.224Z,24.73
2022-10-01T18:59:17.593Z,22.05
2022-10-01T19:02:03.269Z,24.42
2022-10-01T19:05:05.390Z,28.60
2022-10-01T19:07:58.472Z,26.10
2022-10-01T19:10:31.053Z,20.42
2022-10-01T19:13:22.533Z,23.98
2022-10-01T19:15:49.166Z,23.45
2022-10-01T19:18:29.353Z,25.00
2022-10-01T19:21:19.385Z,26.90
2022-10-01T19:24:07.761Z,38.45
2022-10-01T19:26:49.261Z,31.85
2022-10-01T19:29:36.416Z,24.95
2022-10-01T19:32:12.747Z,27.60
2022-10-01T19:34:44.548Z,27.42
2022-10-01T19:37:36.424Z,18.35
2022-10-01T19:40:23.544Z,22.90
2022-10-01T19:43:01.135Z,28.55
2022-10-01T19:45:42.447Z,19.70
2022-10-01T19:48:41.254Z,23.27
2022-10-01T19:51:12.485Z,38.95
2022-10-01T19:53:43.753Z,28.63
2022-10-01T19:56:16.375Z,20.27
2022-10-01T19:58:43.096Z,21.65
2022-10-01T20:01:17.207Z,18.25
2022-10-01T20:03:51.157Z,25.45
2022-10-01T20:06:26.895Z,18.05
2022-10-01T20:09:00.327Z,21.42
2022-10-01T20:11:36.299Z,17.95
2022-10-01T20:14:40.237Z,23.73
2022-10-01T20:17:36.062Z,21.42
2022-10-01T20:20:36.166Z,18.88
2022-10-01T20:23:34.267Z,23.55
2022-10-01T20:26:09.440Z,24.98
2022-10-01T20:28:42.077Z,21.70
2022-10-01T20:31:20.503Z,28.60
2022-10-01T20:33:52.535Z,26.00
2022-10-01T20:36:26.231Z,23.50
2022-10-01T20:39:22.550Z,17.45
2022-10-01T20:41:53.277Z,25.80
2022-10-01T20:44:25.904Z,26.45
2022-10-01T20:47:05.236Z,16.80
2022-10-01T20:49:43.401Z,24.83
2022-10-01T20:52:41.359Z,20.63
2022-10-01T20:55:18.577Z,19.15
2022-10-01T20:57:50.820Z,16.08
2022-10-01T21:00:28.029Z,23.75
2022-10-01T21:03:11.015Z,17.05
2022-10-01T21:05:58.833Z,19.92
2022-10-01T21:09:02.676Z,25.92
2022-10-01T21:11:39.749Z,13.05
2022-10-01T21:14:27.123Z,20.55
2022-10-01T21:17:29.020Z,18.77
2022-10-01T21:20:13.808Z,14.23
2022-10-01T21:22:52.914Z,27.30
2022-10-01T21:25:41.164Z,20.98
2022-10-01T21:28:41.235Z,18.17
2022-10-01T21:31:13.533Z,23.75
2022-10-01T21:33:58.024Z,20.23
2022-10-01T21:36:45.977Z,13.10
2022-10-01T21:39:20.204Z,18.85
2022-10-01T21:42:10.165Z,17.50
2022-10-01T21:45:00.020Z,20.30
2022-10-01T21:47:50.708Z,22.08
2022-10-01T21:50:32.141Z,18.38
2022-10-01T21:53:28.848Z,15.63
2022-10-01T21:56:13.848Z,22.63
2022-10-01T21:59:14.343Z,22.40
2022-10-01T22:01:43.717Z,17.38
2022-10-01T22:04:19.068Z,17.90
2022-10-01T22:06:51.741Z,22.58
2022-10-01T22:09:44.234Z,18.85
2022-10-01T22:12:12.049Z,18.50
2022-10-01T22:14:40.318Z,23.88
2022-10-01T22:17:17.046Z,21.45
2022-10-01T22:19:49.051Z,23.65
2022-10-01T22:22:33.065Z,22.92
2022-10-01T22:25:00.876Z,28.88
2022-10-01T22:27:31.951Z,24.75
2022-10-01T22:30:20.724Z,33.25
2022-10-01T22:32:56.485Z,22.00
2022-10-01T22:35:28.468Z,21.30
2022-10-01T22:38:25.250Z,18.92
2022-10-01T22:41:08.534Z,25.40
2022-10-01T22:43:35.570Z,19.17
2022-10-01T22:46:13.247Z,24.65
2022-10-01T22:48:44.353Z,18.73
2022-10-01T22:51:24.340Z,24.48
2022-10-01T22:54:17.464Z,21.17
2022-10-01T22:57:03.170Z,26.80
2022-10-01T22:59:43.788Z,24.27
2022-10-01T23:02:35.803Z,24.58
2022-10-01T23:05:31.254Z,28.63
2022-10-01T23:08:03.442Z,23.95
2022-10-01T23:10:51.678Z,28.17
2022-10-01T23:13:52.229Z,24.70
2022-10-01T23:16:37.579Z,22.20
2022-10-01T23:19:22.106Z,29.40
2022-10-01T23:21:51.336Z,22.25
2022-10-01T23:24:46.366Z,28.98
2022-10-01T23:27:33.433Z,23.50
2022-10-01T23:30:16.031Z,25.17
2022-10-01T23:33:00.818Z,29.83
2022-10-01T23:35:42.863Z,23.42
2022-10-01T23:38:37.273Z,23.90
2022-10-01T23:41:19.506Z,39.03
2022-10-01T23:43:49.106Z,28.95
2022-10-01T23:46:30.114Z,34.20
2022-10-01T23:49:03.264Z,27.88
2022-10-01T23:51:42.818Z,28.88
2022-10-01T23:54:09.126Z,40.03
2022-10-01T23:56:50.799Z,25.17
2022-10-01T23:59:32.421Z,28.20
